createdAt,value
2022-07-29T00:00:19.070Z,100892.34
2022-07-29T00:02:46.222Z,100889.38
2022-07-29T00:05:19.369Z,100885.81
2022-07-29T00:07:47.151Z,100888.06
2022-07-29T00:10:14.186Z,100884.25
2022-07-29T00:12:41.353Z,100882.81
2022-07-29T00:15:09.091Z,100876.81
2022-07-29T00:17:36.193Z,100873.03
2022-07-29T00:20:04.481Z,100866.81
2022-07-29T00:22:31.601Z,100859.88
2022-07-29T00:25:01.214Z,100868.59
2022-07-29T00:27:28.328Z,100871.34
2022-07-29T00:29:55.514Z,100868.50
2022-07-29T00:32:22.672Z,100866.00
2022-07-29T00:35:09.179Z,100859.78
2022-07-29T00:37:37.114Z,100867.88
2022-07-29T00:40:04.754Z,100852.75
2022-07-29T00:42:31.847Z,100844.75
2022-07-29T00:44:58.802Z,100825.72
2022-07-29T00:47:25.798Z,100839.25
2022-07-29T00:49:53.470Z,100837.25
2022-07-29T00:52:21.303Z,100837.47
2022-07-29T00:54:48.381Z,100834.97
2022-07-29T00:57:15.549Z,100838.09
2022-07-29T00:59:42.813Z,100832.00
2022-07-29T01:02:10.085Z,100833.44
2022-07-29T01:04:37.314Z,100816.25
2022-07-29T01:07:05.290Z,100823.66
2022-07-29T01:09:43.095Z,100810.69
2022-07-29T01:12:27.371Z,100807.94
2022-07-29T01:14:56.340Z,100808.06
2022-07-29T01:17:32.322Z,100807.22
2022-07-29T01:20:18.716Z,100806.59
2022-07-29T01:23:12.023Z,100803.63
2022-07-29T01:26:20.471Z,100806.38
2022-07-29T01:29:00.730Z,100806.59
2022-07-29T01:31:59.181Z,100813.06
2022-07-29T01:34:42.130Z,100805.44
2022-07-29T01:37:33.382Z,100815.44
2022-07-29T01:40:02.893Z,100809.81
2022-07-29T01:42:43.101Z,100803.75
2022-07-29T01:45:17.898Z,100793.38
2022-07-29T01:48:00.321Z,100802.59
2022-07-29T01:50:41.125Z,100799.34
2022-07-29T01:53:11.440Z,100795.19
2022-07-29T01:55:43.545Z,100796.72
2022-07-29T01:58:13.223Z,100793.06
2022-07-29T02:00:43.848Z,100799.47
2022-07-29T02:03:13.961Z,100790.53
2022-07-29T02:05:44.854Z,100786.63
2022-07-29T02:08:14.244Z,100781.84
2022-07-29T02:10:46.997Z,100780.31
2022-07-29T02:13:21.543Z,100783.75
2022-07-29T02:15:51.378Z,100784.72
2022-07-29T02:18:25.002Z,100781.63
2022-07-29T02:20:59.476Z,100784.63
2022-07-29T02:23:50.337Z,100784.63
2022-07-29T02:26:21.372Z,100780.69
2022-07-29T02:28:55.347Z,100781.97
2022-07-29T02:31:27.334Z,100778.44
2022-07-29T02:33:55.690Z,100782.25
2022-07-29T02:36:24.625Z,100771.38
2022-07-29T02:38:54.339Z,100773.41
2022-07-29T02:41:27.050Z,100781.50
2022-07-29T02:43:57.978Z,100781.38
2022-07-29T02:46:33.800Z,100784.44
2022-07-29T02:49:16.658Z,100784.69
2022-07-29T02:51:47.090Z,100779.53
2022-07-29T02:54:24.785Z,100783.34
2022-07-29T02:56:56.330Z,100798.94
2022-07-29T02:59:27.854Z,100800.84
2022-07-29T03:01:56.481Z,100812.84
2022-07-29T03:04:26.742Z,100807.38
2022-07-29T03:06:54.632Z,100820.00
2022-07-29T03:09:24.012Z,100802.84
2022-07-29T03:11:51.236Z,100818.06
2022-07-29T03:14:25.366Z,100823.06
2022-07-29T03:16:53.298Z,100817.84
2022-07-29T03:19:21.420Z,100819.16
2022-07-29T03:21:49.122Z,100812.59
2022-07-29T03:24:30.765Z,100814.50
2022-07-29T03:26:58.752Z,100810.09
2022-07-29T03:29:33.021Z,100803.59
2022-07-29T03:32:07.384Z,100809.06
2022-07-29T03:34:39.067Z,100809.53
2022-07-29T03:37:07.304Z,100812.84
2022-07-29T03:39:39.459Z,100812.84
2022-07-29T03:42:09.236Z,100803.69
2022-07-29T03:44:39.511Z,100819.91
2022-07-29T03:47:09.027Z,100814.56
2022-07-29T03:49:41.782Z,100813.34
2022-07-29T03:52:09.843Z,100816.94
2022-07-29T03:54:37.380Z,100812.66
2022-07-29T03:57:07.020Z,100814.31
2022-07-29T03:59:34.884Z,100810.53
2022-07-29T04:02:04.299Z,100811.81
2022-07-29T04:04:33.202Z,100811.22
2022-07-29T04:07:01.549Z,100814.91
2022-07-29T04:09:28.726Z,100824.53
2022-07-29T04:12:03.209Z,100825.88
2022-07-29T04:14:32.920Z,100823.38
2022-07-29T04:17:06.267Z,100819.31
2022-07-29T04:19:33.518Z,100818.25
2022-07-29T04:22:01.933Z,100824.78
2022-07-29T04:24:29.290Z,100820.03
2022-07-29T04:26:58.464Z,100821.00
2022-07-29T04:29:25.662Z,100818.34
2022-07-29T04:31:52.802Z,100826.34
2022-07-29T04:34:28.681Z,100822.03
2022-07-29T04:36:56.378Z,100835.06
2022-07-29T04:39:29.569Z,100832.72
2022-07-29T04:41:57.561Z,100822.84
2022-07-29T04:44:28.794Z,100830.94
2022-07-29T04:46:57.672Z,100824.59
2022-07-29T04:49:25.443Z,100833.78
2022-07-29T04:51:52.511Z,100837.13
2022-07-29T04:54:19.881Z,100841.28
2022-07-29T04:56:47.382Z,100845.72
2022-07-29T04:59:18.017Z,100836.44
2022-07-29T05:01:45.174Z,100845.00
2022-07-29T05:04:12.613Z,100847.25
2022-07-29T05:06:40.253Z,100841.06
2022-07-29T05:09:08.800Z,100848.81
2022-07-29T05:11:35.986Z,100853.13
2022-07-29T05:14:03.161Z,100852.75
2022-07-29T05:16:30.510Z,100866.47
2022-07-29T05:18:58.015Z,100866.22
2022-07-29T05:21:25.178Z,100864.09
2022-07-29T05:23:52.372Z,100864.09
2022-07-29T05:26:23.977Z,100865.28
2022-07-29T05:28:51.533Z,100867.19
2022-07-29T05:31:18.729Z,100861.22
2022-07-29T05:33:46.130Z,100867.41
2022-07-29T05:36:13.346Z,100862.53
2022-07-29T05:38:45.924Z,100875.78
2022-07-29T05:41:12.898Z,100886.84
2022-07-29T05:43:39.905Z,100891.38
2022-07-29T05:46:07.012Z,100895.44
2022-07-29T05:48:34.210Z,100897.38
2022-07-29T05:51:01.592Z,100900.25
2022-07-29T05:53:29.918Z,100910.13
2022-07-29T05:56:06.748Z,100922.06
2022-07-29T05:58:34.214Z,100929.94
2022-07-29T06:01:01.567Z,100921.09
2022-07-29T06:03:32.620Z,100920.16
2022-07-29T06:05:59.625Z,100931.94
2022-07-29T06:08:26.790Z,100936.22
2022-07-29T06:10:54.081Z,100934.16
2022-07-29T06:13:21.136Z,100942.88
2022-07-29T06:15:53.331Z,100935.47
2022-07-29T06:18:21.717Z,100942.28
2022-07-29T06:20:49.085Z,100939.06
2022-07-29T06:23:20.617Z,100940.03
2022-07-29T06:25:47.860Z,100941.00
2022-07-29T06:28:19.006Z,100935.63
2022-07-29T06:30:47.454Z,100941.59
2022-07-29T06:33:19.647Z,100938.16
2022-07-29T06:35:53.302Z,100924.44
2022-07-29T06:38:33.844Z,100931.59
2022-07-29T06:41:01.959Z,100925.00
2022-07-29T06:43:50.162Z,100931.22
2022-07-29T06:46:24.462Z,100939.81
2022-07-29T06:48:53.221Z,100939.59
2022-07-29T06:51:22.443Z,100940.78
2022-07-29T06:53:59.978Z,100934.34
2022-07-29T06:56:32.447Z,100936.84
2022-07-29T06:59:15.771Z,100923.13
2022-07-29T07:01:50.839Z,100900.44
2022-07-29T07:04:25.447Z,100922.41
2022-07-29T07:06:56.495Z,100931.00
2022-07-29T07:09:23.672Z,100928.63
2022-07-29T07:11:50.884Z,100941.25
2022-07-29T07:14:18.296Z,100941.69
2022-07-29T07:16:52.713Z,100937.75
2022-07-29T07:19:25.457Z,100947.56
2022-07-29T07:21:53.799Z,100924.44
2022-07-29T07:24:22.772Z,100920.09
2022-07-29T07:26:55.351Z,100915.09
2022-07-29T07:29:26.278Z,100920.09
2022-07-29T07:31:58.840Z,100942.19
2022-07-29T07:34:28.271Z,100947.28
2022-07-29T07:36:57.097Z,100945.63
2022-07-29T07:39:24.391Z,100948.13
2022-07-29T07:41:51.513Z,100951.13
2022-07-29T07:44:23.689Z,100951.59
2022-07-29T07:46:51.057Z,100958.06
2022-07-29T07:49:18.208Z,100958.81
2022-07-29T07:51:50.625Z,100951.28
2022-07-29T07:54:21.396Z,100949.66
2022-07-29T07:56:53.195Z,100954.22
2022-07-29T07:59:24.582Z,100946.69
2022-07-29T08:01:56.029Z,100942.50
2022-07-29T08:04:28.117Z,100935.13
2022-07-29T08:06:57.666Z,100920.47
2022-07-29T08:09:29.619Z,100922.75
2022-07-29T08:12:00.230Z,100920.25
2022-07-29T08:14:27.434Z,100921.09
2022-07-29T08:16:54.768Z,100921.00
2022-07-29T08:19:21.999Z,100929.69
2022-07-29T08:21:49.076Z,100922.66
2022-07-29T08:24:34.669Z,100926.44
2022-07-29T08:27:01.817Z,100915.22
2022-07-29T08:29:29.269Z,100911.91
2022-07-29T08:31:56.969Z,100913.00
2022-07-29T08:34:27.028Z,100924.31
2022-07-29T08:36:56.615Z,100899.75
2022-07-29T08:39:31.360Z,100928.94
2022-07-29T08:41:58.838Z,100933.22
2022-07-29T08:44:30.750Z,100938.69
2022-07-29T08:46:58.501Z,100941.50
2022-07-29T08:49:36.058Z,100934.75
2022-07-29T08:52:03.593Z,100937.59
2022-07-29T08:54:31.677Z,100942.03
2022-07-29T08:57:00.545Z,100934.97
2022-07-29T08:59:28.920Z,100934.53
2022-07-29T09:02:01.122Z,100927.72
2022-07-29T09:04:35.217Z,100941.75
2022-07-29T09:07:05.233Z,100933.09
2022-07-29T09:09:34.602Z,100943.50
2022-07-29T09:12:02.082Z,100930.09
2022-07-29T09:14:29.138Z,100933.25
2022-07-29T09:17:03.800Z,100939.00
2022-07-29T09:19:32.858Z,100932.41
2022-07-29T09:22:03.745Z,100935.06
2022-07-29T09:24:56.218Z,100938.22
2022-07-29T09:27:27.472Z,100926.03
2022-07-29T09:30:11.559Z,100929.94
2022-07-29T09:33:00.945Z,100927.50
2022-07-29T09:35:29.045Z,100940.09
2022-07-29T09:37:56.487Z,100924.50
2022-07-29T09:40:26.272Z,100939.09
2022-07-29T09:42:57.789Z,100940.44
2022-07-29T09:45:29.797Z,100938.06
2022-07-29T09:48:01.167Z,100940.56
2022-07-29T09:50:42.016Z,100946.78
2022-07-29T09:53:12.019Z,100930.44
2022-07-29T09:55:52.008Z,100942.88
2022-07-29T09:58:21.686Z,100939.09
2022-07-29T10:00:50.545Z,100944.94
2022-07-29T10:03:18.361Z,100946.25
2022-07-29T10:05:47.204Z,100940.06
2022-07-29T10:08:14.429Z,100936.53
2022-07-29T10:10:43.839Z,100935.03
2022-07-29T10:13:17.131Z,100930.75
2022-07-29T10:15:46.661Z,100926.16
2022-07-29T10:18:18.068Z,100937.81
2022-07-29T10:20:46.005Z,100942.66
2022-07-29T10:23:13.568Z,100935.00
2022-07-29T10:25:45.913Z,100939.56
2022-07-29T10:28:16.513Z,100934.31
2022-07-29T10:30:46.188Z,100931.88
2022-07-29T10:33:16.674Z,100929.25
2022-07-29T10:36:02.937Z,100931.72
2022-07-29T10:38:30.172Z,100927.06
2022-07-29T10:41:32.297Z,100922.75
2022-07-29T10:44:19.309Z,100925.41
2022-07-29T10:46:51.423Z,100934.75
2022-07-29T10:49:20.234Z,100926.53
2022-07-29T10:51:51.394Z,100920.31
2022-07-29T10:54:19.573Z,100924.56
2022-07-29T10:56:47.761Z,100922.47
2022-07-29T10:59:21.554Z,100930.66
2022-07-29T11:01:53.521Z,100927.03
2022-07-29T11:04:47.086Z,100923.53
2022-07-29T11:07:17.139Z,100923.59
2022-07-29T11:09:46.370Z,100923.63
2022-07-29T11:12:39.260Z,100926.44
2022-07-29T11:15:17.950Z,100920.19
2022-07-29T11:18:01.483Z,100915.25
2022-07-29T11:20:49.897Z,100915.59
2022-07-29T11:23:33.945Z,100914.53
2022-07-29T11:26:10.939Z,100917.06
2022-07-29T11:29:01.843Z,100922.03
2022-07-29T11:31:45.670Z,100913.47
2022-07-29T11:34:30.071Z,100897.38
2022-07-29T11:37:13.565Z,100909.13
2022-07-29T11:39:41.611Z,100909.16
2022-07-29T11:42:28.367Z,100903.97
2022-07-29T11:45:08.900Z,100915.41
2022-07-29T11:47:56.045Z,100903.81
2022-07-29T11:50:37.658Z,100912.66
2022-07-29T11:53:17.465Z,100905.53
2022-07-29T11:56:04.396Z,100905.59
2022-07-29T11:58:31.820Z,100907.25
2022-07-29T12:01:18.424Z,100907.88
2022-07-29T12:03:48.046Z,100906.50
2022-07-29T12:06:34.939Z,100908.34
2022-07-29T12:09:11.220Z,100914.16
2022-07-29T12:11:41.487Z,100918.28
2022-07-29T12:14:31.824Z,100913.03
2022-07-29T12:17:32.261Z,100916.63
2022-07-29T12:20:07.804Z,100923.03
2022-07-29T12:22:38.897Z,100919.41
2022-07-29T12:25:32.519Z,100912.78
2022-07-29T12:28:07.459Z,100915.34
2022-07-29T12:30:49.496Z,100893.44
2022-07-29T12:33:25.243Z,100908.97
2022-07-29T12:36:06.730Z,100907.63
2022-07-29T12:38:41.125Z,100917.84
2022-07-29T12:41:08.509Z,100915.66
2022-07-29T12:43:54.987Z,100900.97
2022-07-29T12:46:22.619Z,100909.03
2022-07-29T12:48:55.717Z,100911.78
2022-07-29T12:51:34.487Z,100900.16
2022-07-29T12:54:20.145Z,100912.88
2022-07-29T12:56:47.525Z,100912.06
2022-07-29T12:59:22.793Z,100908.72
2022-07-29T13:01:53.399Z,100906.78
2022-07-29T13:04:30.454Z,100902.63
2022-07-29T13:07:08.018Z,100904.03
2022-07-29T13:09:48.708Z,100902.63
2022-07-29T13:12:16.202Z,100900.97
2022-07-29T13:14:45.826Z,100892.44
2022-07-29T13:17:17.947Z,100895.72
2022-07-29T13:19:53.867Z,100900.16
2022-07-29T13:22:22.001Z,100892.94
2022-07-29T13:25:02.401Z,100904.28
2022-07-29T13:27:35.301Z,100908.13
2022-07-29T13:30:07.579Z,100897.31
2022-07-29T13:32:38.559Z,100900.91
2022-07-29T13:35:08.183Z,100890.38
2022-07-29T13:37:38.990Z,100897.00
2022-07-29T13:40:24.955Z,100886.56
2022-07-29T13:42:52.277Z,100895.69
2022-07-29T13:45:19.896Z,100888.22
2022-07-29T13:47:49.804Z,100892.88
2022-07-29T13:50:35.148Z,100888.09
2022-07-29T13:53:02.405Z,100897.53
2022-07-29T13:55:34.577Z,100893.63
2022-07-29T13:58:01.664Z,100898.94
2022-07-29T14:00:32.103Z,100891.19
2022-07-29T14:03:02.005Z,100897.91
2022-07-29T14:05:40.902Z,100891.16
2022-07-29T14:08:08.189Z,100892.75
2022-07-29T14:10:35.910Z,100893.25
2022-07-29T14:13:05.906Z,100895.47
2022-07-29T14:16:07.908Z,100901.44
2022-07-29T14:18:35.110Z,100892.72
2022-07-29T14:21:20.713Z,100895.31
2022-07-29T14:23:48.592Z,100892.53
2022-07-29T14:26:28.090Z,100893.88
2022-07-29T14:28:55.638Z,100898.94
2022-07-29T14:31:22.999Z,100904.00
2022-07-29T14:34:02.832Z,100899.06
2022-07-29T14:36:32.829Z,100901.25
2022-07-29T14:39:00.089Z,100907.00
2022-07-29T14:41:29.099Z,100907.84
2022-07-29T14:43:56.424Z,100894.53
2022-07-29T14:46:23.962Z,100908.53
2022-07-29T14:48:51.153Z,100910.97
2022-07-29T14:51:18.446Z,100915.38
2022-07-29T14:53:45.665Z,100909.72
2022-07-29T14:56:35.475Z,100901.09
2022-07-29T14:59:07.085Z,100918.53
2022-07-29T15:01:37.574Z,100919.16
2022-07-29T15:04:07.174Z,100912.41
2022-07-29T15:06:38.803Z,100921.16
2022-07-29T15:09:11.115Z,100923.50
2022-07-29T15:11:42.108Z,100920.44
2022-07-29T15:14:09.490Z,100923.91
2022-07-29T15:16:38.242Z,100927.75
2022-07-29T15:19:15.769Z,100929.22
2022-07-29T15:21:48.381Z,100935.97
2022-07-29T15:24:18.018Z,100931.03
2022-07-29T15:26:45.636Z,100926.56
2022-07-29T15:29:18.330Z,100930.53
2022-07-29T15:31:45.585Z,100922.66
2022-07-29T15:34:13.021Z,100928.81
2022-07-29T15:36:56.297Z,100922.50
2022-07-29T15:39:23.943Z,100915.31
2022-07-29T15:41:55.668Z,100927.91
2022-07-29T15:44:27.383Z,100907.34
2022-07-29T15:47:03.601Z,100931.22
2022-07-29T15:49:46.633Z,100924.50
2022-07-29T15:52:26.120Z,100919.47
2022-07-29T15:54:57.675Z,100914.00
2022-07-29T15:57:25.762Z,100924.72
2022-07-29T15:59:53.326Z,100912.44
2022-07-29T16:02:22.966Z,100920.44
2022-07-29T16:04:54.075Z,100916.72
2022-07-29T16:07:21.386Z,100920.28
2022-07-29T16:09:53.251Z,100924.91
2022-07-29T16:12:21.061Z,100913.97
2022-07-29T16:14:49.380Z,100914.63
2022-07-29T16:17:16.973Z,100915.25
2022-07-29T16:19:45.347Z,100912.56
2022-07-29T16:22:13.213Z,100923.94
2022-07-29T16:24:40.489Z,100925.44
2022-07-29T16:27:08.181Z,100913.03
2022-07-29T16:29:38.101Z,100929.16
2022-07-29T16:32:06.591Z,100915.91
2022-07-29T16:34:36.034Z,100924.50
2022-07-29T16:37:04.387Z,100914.00
2022-07-29T16:39:32.689Z,100910.94
2022-07-29T16:42:07.590Z,100920.06
2022-07-29T16:44:35.373Z,100919.81
2022-07-29T16:47:03.604Z,100924.78
2022-07-29T16:49:34.961Z,100920.59
2022-07-29T16:52:02.321Z,100938.28
2022-07-29T16:54:29.586Z,100935.28
2022-07-29T16:56:57.355Z,100936.66
2022-07-29T16:59:24.899Z,100931.16
2022-07-29T17:01:52.373Z,100936.44
2022-07-29T17:04:19.777Z,100937.78
2022-07-29T17:06:49.473Z,100940.88
2022-07-29T17:09:16.677Z,100934.78
2022-07-29T17:11:55.072Z,100945.28
2022-07-29T17:14:28.053Z,100956.09
2022-07-29T17:17:01.167Z,100947.22
2022-07-29T17:19:30.377Z,100960.25
2022-07-29T17:22:08.473Z,100964.13
2022-07-29T17:24:38.825Z,100955.81
2022-07-29T17:27:06.696Z,100951.06
2022-07-29T17:29:34.944Z,100962.16
2022-07-29T17:32:12.736Z,100957.44
2022-07-29T17:34:44.023Z,100950.81
2022-07-29T17:37:12.281Z,100953.03
2022-07-29T17:39:44.785Z,100955.50
2022-07-29T17:42:17.352Z,100968.81
2022-07-29T17:44:44.510Z,100971.25
2022-07-29T17:47:15.944Z,100961.84
2022-07-29T17:49:44.906Z,100966.25
2022-07-29T17:52:12.332Z,100966.84
2022-07-29T17:54:39.428Z,100972.13
2022-07-29T17:57:06.825Z,100971.56
2022-07-29T17:59:34.553Z,100974.88
2022-07-29T18:02:03.140Z,100974.31
2022-07-29T18:04:31.369Z,100974.59
2022-07-29T18:06:58.726Z,100975.94
2022-07-29T18:09:26.356Z,100984.19
2022-07-29T18:11:53.726Z,100979.97
2022-07-29T18:14:21.052Z,100981.41
2022-07-29T18:16:48.520Z,100984.66
2022-07-29T18:19:16.173Z,100987.69
2022-07-29T18:21:54.510Z,100984.91
2022-07-29T18:24:25.444Z,100979.09
2022-07-29T18:26:58.477Z,100982.41
2022-07-29T18:29:28.665Z,100992.88
2022-07-29T18:31:56.269Z,100995.91
2022-07-29T18:34:23.609Z,100992.78
2022-07-29T18:36:51.149Z,100999.94
2022-07-29T18:39:20.649Z,100997.13
2022-07-29T18:41:51.217Z,100994.84
2022-07-29T18:44:27.265Z,101001.75
2022-07-29T18:46:55.587Z,100999.47
2022-07-29T18:49:22.903Z,100994.47
2022-07-29T18:51:50.817Z,100998.59
2022-07-29T18:54:18.437Z,100993.28
2022-07-29T18:56:52.993Z,100997.41
2022-07-29T18:59:23.076Z,101007.59
2022-07-29T19:01:58.026Z,101000.13
2022-07-29T19:04:25.614Z,101010.03
2022-07-29T19:06:55.190Z,101003.91
2022-07-29T19:09:27.649Z,101007.72
2022-07-29T19:11:59.655Z,100998.31
2022-07-29T19:14:29.168Z,101009.34
2022-07-29T19:16:57.842Z,101005.38
2022-07-29T19:19:25.372Z,101010.25
2022-07-29T19:21:52.763Z,101001.91
2022-07-29T19:24:19.926Z,101010.75
2022-07-29T19:26:47.219Z,101006.34
2022-07-29T19:29:23.467Z,101009.63
2022-07-29T19:31:53.984Z,101009.31
2022-07-29T19:34:27.782Z,101015.34
2022-07-29T19:37:04.333Z,101020.25
2022-07-29T19:39:35.202Z,101023.00
2022-07-29T19:42:03.607Z,101024.34
2022-07-29T19:44:38.148Z,101018.47
2022-07-29T19:47:05.989Z,101020.91
2022-07-29T19:49:37.006Z,101034.91
2022-07-29T19:52:04.591Z,101039.28
2022-07-29T19:54:31.912Z,101043.38
2022-07-29T19:56:59.741Z,101045.47
2022-07-29T19:59:28.196Z,101041.03
2022-07-29T20:01:57.281Z,101022.00
2022-07-29T20:04:27.346Z,101055.38
2022-07-29T20:06:56.983Z,101049.81
2022-07-29T20:09:24.214Z,101056.22
2022-07-29T20:11:51.428Z,101053.78
2022-07-29T20:14:20.041Z,101060.91
2022-07-29T20:16:47.149Z,101062.28
2022-07-29T20:19:14.395Z,101061.53
2022-07-29T20:21:41.709Z,101062.63
2022-07-29T20:24:10.242Z,101058.69
2022-07-29T20:26:38.034Z,101066.91
2022-07-29T20:29:05.324Z,101065.09
2022-07-29T20:31:32.879Z,101064.09
2022-07-29T20:34:01.392Z,101072.88
2022-07-29T20:36:28.621Z,101081.72
2022-07-29T20:38:56.330Z,101077.88
2022-07-29T20:41:23.335Z,101077.16
2022-07-29T20:43:50.619Z,101074.75
2022-07-29T20:46:18.569Z,101079.31
2022-07-29T20:48:53.443Z,101058.00
2022-07-29T20:51:22.225Z,101067.00
2022-07-29T20:53:49.481Z,101075.84
2022-07-29T20:56:19.587Z,101073.34
2022-07-29T20:58:46.679Z,101068.84
2022-07-29T21:01:13.830Z,101067.50
2022-07-29T21:03:41.216Z,101072.41
2022-07-29T21:06:09.051Z,101078.41
2022-07-29T21:08:36.557Z,101080.13
2022-07-29T21:11:04.741Z,101075.66
2022-07-29T21:13:37.779Z,101089.78
2022-07-29T21:16:12.794Z,101097.78
2022-07-29T21:18:46.221Z,101086.72
2022-07-29T21:21:14.870Z,101085.25
2022-07-29T21:23:45.830Z,101077.78
2022-07-29T21:26:13.259Z,101094.03
2022-07-29T21:28:40.576Z,101090.69
2022-07-29T21:31:12.833Z,101100.34
2022-07-29T21:33:43.001Z,101101.44
2022-07-29T21:36:44.019Z,101105.53
2022-07-29T21:38:58.290Z,101110.78
2022-07-29T21:41:25.482Z,101103.09
2022-07-29T21:44:00.242Z,101109.28
2022-07-29T21:46:28.601Z,101108.72
2022-07-29T21:48:55.927Z,101114.59
2022-07-29T21:51:23.071Z,101082.50
2022-07-29T21:53:50.470Z,101115.94
2022-07-29T21:56:27.614Z,101119.97
2022-07-29T21:58:57.351Z,101121.63
2022-07-29T22:01:24.494Z,101121.50
2022-07-29T22:03:52.939Z,101120.16
2022-07-29T22:06:20.835Z,101121.09
2022-07-29T22:08:47.994Z,101119.56
2022-07-29T22:11:16.432Z,101122.47
2022-07-29T22:13:43.408Z,101119.59
2022-07-29T22:16:14.667Z,101121.31
2022-07-29T22:18:44.987Z,101116.13
2022-07-29T22:21:15.232Z,101123.03
2022-07-29T22:23:42.446Z,101131.28
2022-07-29T22:26:09.561Z,101119.59
2022-07-29T22:28:36.874Z,101119.13
2022-07-29T22:33:32.361Z,101119.13
2022-07-29T22:35:59.613Z,101119.16
2022-07-29T22:38:30.556Z,101111.03
2022-07-29T22:40:58.802Z,101117.25
2022-07-29T22:43:28.602Z,101116.91
2022-07-29T22:45:55.889Z,101113.09
2022-07-29T22:48:28.601Z,101110.47
2022-07-29T22:50:55.580Z,101110.97
2022-07-29T22:53:22.738Z,101112.03
2022-07-29T22:55:49.901Z,101102.75
2022-07-29T22:58:17.151Z,101105.88
2022-07-29T23:00:44.416Z,101099.69
2022-07-29T23:03:11.450Z,101103.00
2022-07-29T23:05:38.604Z,101084.88
2022-07-29T23:08:08.866Z,101092.16
2022-07-29T23:10:35.882Z,101089.16
2022-07-29T23:13:02.928Z,101086.28
2022-07-29T23:15:29.950Z,101078.19
2022-07-29T23:17:57.026Z,101086.56
2022-07-29T23:20:24.308Z,101083.00
2022-07-29T23:22:51.623Z,101082.28
2022-07-29T23:25:18.878Z,101072.25
2022-07-29T23:27:45.872Z,101076.88
2022-07-29T23:30:13.165Z,101068.41
2022-07-29T23:32:40.185Z,101073.78
2022-07-29T23:35:12.812Z,101063.41
2022-07-29T23:37:39.923Z,101063.78
2022-07-29T23:40:12.160Z,101065.19
2022-07-29T23:42:42.143Z,101061.97
2022-07-29T23:45:10.233Z,101055.91
2022-07-29T23:47:40.204Z,101069.59
2022-07-29T23:50:09.648Z,101065.34
2022-07-29T23:52:37.098Z,101062.69
2022-07-29T23:55:38.146Z,101066.25
2022-07-29T23:57:52.261Z,101059.91
